Time;durP1;ratioP1;P1;durP2;ratioP2;P2;SDS_P1;SDS_P2;PMS_P1;PMS_P2;Temp;Humidity;BMP_temperature;BMP_pressure;BME280_temperature;BME280_humidity;BME280_pressure;Samples;Min_cycle;Max_cycle;Signal;HPM_P1;HPM_P2
2023/07/15 00:00:54;;;;;;;;;;;;;;;-144.99;72.03;52246.31;5025135;28;19935;-72
2023/07/15 00:03:21;;;;;;;;;;;;;;;-144.99;71.81;52236.13;5024738;28;19925;-72
2023/07/15 00:05:49;;;;;;;;;;;;;;;-144.99;71.72;52238.16;5025652;28;19959;-71
2023/07/15 00:08:16;;;;;;;;;;;;;;;-144.99;71.67;52272.81;5028307;28;19949;-72
2023/07/15 00:10:43;;;;;;;;;;;;;;;-144.99;71.67;52264.66;5027425;28;19929;-71
2023/07/15 00:13:11;;;;;;;;;;;;;;;-144.99;71.64;52248.34;5028649;28;19948;-72
2023/07/15 00:15:40;;;;;;;;;;;;;;;-144.99;71.50;52252.44;5028386;28;20023;-72
2023/07/15 00:18:09;;;;;;;;;;;;;;;-144.99;71.65;52240.19;5028394;28;20025;-72
2023/07/15 00:20:36;;;;;;;;;;;;;;;-144.99;71.46;52246.31;5020738;28;20030;-71
2023/07/15 00:23:02;;;;;;;;;;;;;;;-144.99;71.69;52268.72;5026560;28;19992;-73
2023/07/15 00:25:31;;;;;;;;;;;;;;;-144.99;72.10;52240.19;5028461;28;19965;-71
2023/07/15 00:27:57;;;;;;;;;;;;;;;-144.99;72.05;52244.28;5027918;28;19951;-73
2023/07/15 00:30:24;;;;;;;;;;;;;;;-144.99;72.02;52256.50;5028465;28;19925;-72
2023/07/15 00:32:51;;;;;;;;;;;;;;;-144.99;71.97;52215.75;5026147;28;19933;-72
2023/07/15 00:35:21;;;;;;;;;;;;;;;-144.99;71.98;52215.75;5026693;28;19940;-73
2023/07/15 00:37:48;;;;;;;;;;;;;;;-144.99;71.70;52215.75;5027723;28;20002;-73
2023/07/15 00:40:15;;;;;;;;;;;;;;;-144.99;71.76;52252.44;5025356;28;19992;-72
2023/07/15 00:42:50;;;;;;;;;;;;;;;-144.99;71.53;52232.03;5027160;28;19947;-73
2023/07/15 00:45:16;;;;;;;;;;;;;;;-144.99;71.34;52264.66;5027838;28;19971;-73
2023/07/15 00:47:47;;;;;;;;;;;;;;;-144.99;71.39;52283.00;5027868;28;19967;-73
2023/07/15 00:50:14;;;;;;;;;;;;;;;-144.99;71.08;52256.50;5027443;28;19952;-73
2023/07/15 00:52:41;;;;;;;;;;;;;;;-144.99;71.01;52278.91;5025795;28;19984;-73
2023/07/15 00:55:08;;;;;;;;;;;;;;;-144.99;70.98;52272.81;5027594;28;19961;-73
2023/07/15 00:57:35;;;;;;;;;;;;;;;-144.99;70.96;52276.88;5027166;28;19969;-73
2023/07/15 01:00:04;;;;;;;;;;;;;;;-144.99;70.81;52219.81;5030474;28;19940;-72
2023/07/15 01:02:31;;;;;;;;;;;;;;;-144.99;70.90;52268.72;5025964;28;20577;-72
2023/07/15 01:04:59;;;;;;;;;;;;;;;-144.99;70.82;52272.81;5030770;28;19973;-71
2023/07/15 01:07:25;;;;;;;;;;;;;;;-144.99;70.80;52227.97;5030021;28;20001;-71
2023/07/15 01:09:52;;;;;;;;;;;;;;;-144.99;70.91;52258.53;5030516;28;19939;-73
2023/07/15 01:12:18;;;;;;;;;;;;;;;-144.99;70.93;52280.97;5029513;28;20056;-73
2023/07/15 01:14:45;;;;;;;;;;;;;;;-144.99;71.18;52248.34;5028999;28;20103;-71
2023/07/15 01:17:12;;;;;;;;;;;;;;;-144.99;71.07;52250.38;5028257;28;20400;-72
2023/07/15 01:19:38;;;;;;;;;;;;;;;-144.99;70.85;52254.47;5027466;28;19943;-71
2023/07/15 01:22:07;;;;;;;;;;;;;;;-144.99;70.94;52248.34;5029506;28;19942;-71
2023/07/15 01:24:36;;;;;;;;;;;;;;;-144.99;70.98;52256.50;5029486;28;19997;-72
2023/07/15 01:27:03;;;;;;;;;;;;;;;-144.99;70.94;52264.66;5027124;28;19977;-71
2023/07/15 01:29:29;;;;;;;;;;;;;;;-144.99;70.90;52244.28;5026429;28;19942;-73
2023/07/15 01:31:56;;;;;;;;;;;;;;;-144.99;70.73;52236.13;5027400;28;19943;-71
2023/07/15 01:34:22;;;;;;;;;;;;;;;-144.99;70.62;52219.81;5026934;28;19929;-71
2023/07/15 01:36:49;;;;;;;;;;;;;;;-144.99;70.76;52260.56;5023152;28;19936;-71
2023/07/15 01:39:16;;;;;;;;;;;;;;;-144.99;70.60;52252.44;5028520;28;19946;-71
2023/07/15 01:41:44;;;;;;;;;;;;;;;-144.99;70.52;52268.72;5028337;28;19950;-70
2023/07/15 01:44:10;;;;;;;;;;;;;;;-144.99;70.42;52240.19;5028677;28;19957;-71
2023/07/15 01:46:39;;;;;;;;;;;;;;;-144.99;70.49;52227.97;5026155;28;20047;-71
2023/07/15 01:49:05;;;;;;;;;;;;;;;-144.99;70.60;52232.03;5026807;28;19944;-71
2023/07/15 01:51:33;;;;;;;;;;;;;;;-144.99;70.71;52248.34;5026333;28;19946;-71
2023/07/15 01:54:00;;;;;;;;;;;;;;;-144.99;70.61;52236.13;5029335;28;20446;-71
2023/07/15 01:56:26;;;;;;;;;;;;;;;-144.99;70.75;52285.03;5028920;28;19936;-71
2023/07/15 01:58:54;;;;;;;;;;;;;;;-144.99;70.66;52258.53;5030573;28;19939;-72
2023/07/15 02:01:21;;;;;;;;;;;;;;;-144.99;70.98;52276.88;5026447;28;20407;-72
2023/07/15 02:03:47;;;;;;;;;;;;;;;-144.99;70.64;52248.34;5022863;28;19987;-70
2023/07/15 02:06:14;;;;;;;;;;;;;;;-144.99;70.50;52227.97;5029487;28;19962;-70
2023/07/15 02:08:41;;;;;;;;;;;;;;;-144.99;70.64;52240.19;5027999;28;19941;-70
2023/07/15 02:11:08;;;;;;;;;;;;;;;-144.99;70.26;52248.34;5030068;28;20482;-70
2023/07/15 02:13:34;;;;;;;;;;;;;;;-144.99;70.39;52262.63;5030272;28;20036;-70
2023/07/15 02:16:02;;;;;;;;;;;;;;;-144.99;70.41;52242.22;5030353;28;19959;-70
2023/07/15 02:18:29;;;;;;;;;;;;;;;-144.99;70.20;52248.34;5029916;28;19946;-70
2023/07/15 02:20:56;;;;;;;;;;;;;;;-144.99;71.04;52311.53;5028651;28;19941;-71
2023/07/15 02:23:22;;;;;;;;;;;;;;;-144.99;70.67;52227.97;5030666;28;20004;-71
2023/07/15 02:25:49;;;;;;;;;;;;;;;-144.99;70.46;52268.72;5012943;28;19963;-71
2023/07/15 02:28:15;;;;;;;;;;;;;;;-144.99;70.39;52232.03;5027048;28;19942;-71
2023/07/15 02:30:42;;;;;;;;;;;;;;;-144.99;70.30;52268.72;5029681;28;19943;-70
2023/07/15 02:33:10;;;;;;;;;;;;;;;-144.99;70.26;52248.34;5029657;28;20534;-70
2023/07/15 02:35:39;;;;;;;;;;;;;;;-144.99;70.27;52232.03;5029754;28;19955;-71
2023/07/15 02:38:06;;;;;;;;;;;;;;;-144.99;70.44;52260.56;5028315;28;19944;-70
2023/07/15 02:40:32;;;;;;;;;;;;;;;-144.99;70.41;52287.06;5026647;28;19943;-70
2023/07/15 02:42:59;;;;;;;;;;;;;;;-144.99;70.48;52236.13;5028966;28;20316;-71
2023/07/15 02:45:26;;;;;;;;;;;;;;;-144.99;70.48;52250.38;5028428;28;19953;-71
2023/07/15 02:47:52;;;;;;;;;;;;;;;-144.99;70.57;52287.06;5030410;28;20243;-71
2023/07/15 02:50:21;;;;;;;;;;;;;;;-144.99;70.49;52240.19;5031711;28;19943;-71
2023/07/15 02:52:47;;;;;;;;;;;;;;;-144.99;70.61;52252.44;5031764;28;20689;-71
2023/07/15 02:55:14;;;;;;;;;;;;;;;-144.99;70.69;52254.47;5029801;28;19953;-71
2023/07/15 02:57:41;;;;;;;;;;;;;;;-144.99;70.80;52264.66;5027897;28;19938;-71
2023/07/15 03:00:11;;;;;;;;;;;;;;;-144.99;70.61;52264.66;5030970;28;20472;-71
2023/07/15 03:02:38;;;;;;;;;;;;;;;-144.99;70.83;52223.88;5031555;28;19942;-71
2023/07/15 03:05:05;;;;;;;;;;;;;;;-144.99;70.66;52285.03;5028756;28;20457;-71
2023/07/15 03:07:33;;;;;;;;;;;;;;;-144.99;70.66;52244.28;5028627;28;20072;-71
2023/07/15 03:10:00;;;;;;;;;;;;;;;-144.99;70.72;52301.34;5030586;28;19940;-71
2023/07/15 03:12:26;;;;;;;;;;;;;;;-144.99;70.87;52270.78;5031331;28;19951;-74
2023/07/15 03:14:53;;;;;;;;;;;;;;;-144.99;70.77;52264.66;5030913;28;19960;-72
2023/07/15 03:17:20;;;;;;;;;;;;;;;-144.99;71.06;52272.81;5028828;28;19977;-73
2023/07/15 03:19:46;;;;;;;;;;;;;;;-144.99;70.97;52276.88;5030517;28;19947;-71
2023/07/15 03:22:13;;;;;;;;;;;;;;;-144.99;71.11;52264.66;5030339;28;19957;-71
2023/07/15 03:24:41;;;;;;;;;;;;;;;-144.99;71.07;52268.72;5027815;28;19963;-71
2023/07/15 03:27:07;;;;;;;;;;;;;;;-144.99;71.21;52242.22;5029953;28;19956;-73
2023/07/15 03:29:34;;;;;;;;;;;;;;;-144.99;70.96;52276.88;5026395;28;19947;-72
2023/07/15 03:32:00;;;;;;;;;;;;;;;-144.99;71.12;52299.31;5029084;28;19932;-73
2023/07/15 03:34:27;;;;;;;;;;;;;;;-144.99;71.14;52287.06;5026466;28;19964;-72
2023/07/15 03:36:53;;;;;;;;;;;;;;;-144.99;71.18;52268.72;5028913;28;19944;-72
2023/07/15 03:39:21;;;;;;;;;;;;;;;-144.99;71.29;52246.31;5027633;28;19942;-71
2023/07/15 03:41:49;;;;;;;;;;;;;;;-144.99;71.23;52283.00;5026335;28;19939;-72
2023/07/15 03:44:15;;;;;;;;;;;;;;;-144.99;71.49;52285.03;5028388;28;19955;-72
2023/07/15 03:46:42;;;;;;;;;;;;;;;-144.99;71.24;52262.63;5024429;28;19957;-72
2023/07/15 03:49:08;;;;;;;;;;;;;;;-144.99;71.19;52276.88;5029068;28;19939;-72
2023/07/15 03:51:35;;;;;;;;;;;;;;;-144.99;71.16;52268.72;5027077;28;19945;-72
2023/07/15 03:54:02;;;;;;;;;;;;;;;-144.99;71.20;52285.03;5027002;28;19958;-72
2023/07/15 03:56:29;;;;;;;;;;;;;;;-144.99;71.27;52289.13;5028468;28;19959;-72
2023/07/15 03:58:57;;;;;;;;;;;;;;;-144.99;71.07;52252.44;5025693;28;19945;-71
2023/07/15 04:01:24;;;;;;;;;;;;;;;-144.99;71.16;52264.66;5028297;28;20426;-72
2023/07/15 04:03:50;;;;;;;;;;;;;;;-144.99;71.30;52285.03;5026530;28;19943;-72
2023/07/15 04:06:17;;;;;;;;;;;;;;;-144.99;71.15;52234.09;5022310;28;19980;-71
2023/07/15 04:08:44;;;;;;;;;;;;;;;-144.99;71.24;52252.44;5026088;28;19964;-72
2023/07/15 04:11:11;;;;;;;;;;;;;;;-144.99;71.33;52252.44;5028088;28;20419;-72
2023/07/15 04:13:38;;;;;;;;;;;;;;;-144.99;71.23;52236.13;5030710;28;19937;-72
2023/07/15 04:16:06;;;;;;;;;;;;;;;-144.99;71.23;52236.13;5021461;28;19943;-71
2023/07/15 04:18:33;;;;;;;;;;;;;;;-144.99;71.19;52244.28;5024642;28;20456;-70
2023/07/15 04:20:59;;;;;;;;;;;;;;;-144.99;71.28;52285.03;5020865;28;19946;-70
2023/07/15 04:23:26;;;;;;;;;;;;;;;-144.99;71.31;52256.50;5029840;28;19944;-72
2023/07/15 04:25:53;;;;;;;;;;;;;;;-144.99;71.39;52232.03;5018088;28;19976;-72
2023/07/15 04:28:19;;;;;;;;;;;;;;;-144.99;71.56;52272.81;5022360;28;19953;-71
2023/07/15 04:30:46;;;;;;;;;;;;;;;-144.99;71.43;52252.44;5027909;28;19939;-71
2023/07/15 04:33:14;;;;;;;;;;;;;;;-144.99;71.33;52272.81;5027418;28;20053;-71
2023/07/15 04:35:41;;;;;;;;;;;;;;;-144.99;71.55;52276.88;5026120;28;19959;-70
2023/07/15 04:38:09;;;;;;;;;;;;;;;-144.99;71.53;52244.28;5027620;28;20429;-70
2023/07/15 04:40:35;;;;;;;;;;;;;;;-144.99;71.47;52272.81;5016680;28;20701;-70
2023/07/15 04:43:02;;;;;;;;;;;;;;;-144.99;71.35;52260.56;5019107;28;19970;-69
2023/07/15 04:45:31;;;;;;;;;;;;;;;-144.99;71.39;52258.53;5000030;28;20378;-70
2023/07/15 04:47:58;;;;;;;;;;;;;;;-144.99;71.20;52207.59;5023581;28;20468;-70
2023/07/15 04:50:26;;;;;;;;;;;;;;;-144.99;71.07;52268.72;5027928;28;19937;-70
2023/07/15 04:52:53;;;;;;;;;;;;;;;-144.99;71.18;52252.44;5025653;28;20423;-70
2023/07/15 04:55:19;;;;;;;;;;;;;;;-144.99;70.96;52280.97;5028258;28;20441;-70
2023/07/15 04:57:46;;;;;;;;;;;;;;;-144.99;71.01;52240.19;5027468;28;19943;-70
2023/07/15 05:00:13;;;;;;;;;;;;;;;-144.99;71.03;52223.88;5028017;28;20367;-70
2023/07/15 05:02:40;;;;;;;;;;;;;;;-144.99;71.06;52215.75;5029149;28;19946;-70
2023/07/15 05:05:07;;;;;;;;;;;;;;;-144.99;71.09;52207.59;5029342;28;19960;-70
2023/07/15 05:07:35;;;;;;;;;;;;;;;-144.99;70.92;52248.34;5028219;28;19966;-71
2023/07/15 05:10:01;;;;;;;;;;;;;;;-144.99;70.84;52211.66;5028516;28;20473;-71
2023/07/15 05:12:28;;;;;;;;;;;;;;;-144.99;70.94;52256.50;5029020;28;19937;-72
2023/07/15 05:14:54;;;;;;;;;;;;;;;-144.99;70.71;52227.97;5028588;28;19959;-71
2023/07/15 05:17:21;;;;;;;;;;;;;;;-144.99;70.60;52207.59;5028176;28;19936;-71
2023/07/15 05:19:47;;;;;;;;;;;;;;;-144.99;70.93;52248.34;5026804;28;19939;-72
2023/07/15 05:22:14;;;;;;;;;;;;;;;-144.99;70.39;52223.88;5029129;28;19964;-72
2023/07/15 05:24:42;;;;;;;;;;;;;;;-144.99;70.47;52219.81;5028628;28;20611;-71
2023/07/15 05:27:09;;;;;;;;;;;;;;;-144.99;70.46;52244.28;5035099;22;19969;-73
2023/07/15 05:29:35;;;;;;;;;;;;;;;-144.99;70.71;52276.88;5016198;28;19955;-71
2023/07/15 05:32:02;;;;;;;;;;;;;;;-144.99;70.99;52223.88;5018854;28;19935;-77
2023/07/15 05:34:29;;;;;;;;;;;;;;;-144.99;70.75;52236.13;5030366;28;19972;-77
2023/07/15 05:36:55;;;;;;;;;;;;;;;-144.99;70.69;52227.97;5026557;28;19969;-77
2023/07/15 05:39:22;;;;;;;;;;;;;;;-144.99;70.80;52215.75;5023395;28;19948;-74
2023/07/15 05:41:50;;;;;;;;;;;;;;;-144.99;70.33;52219.81;5023271;28;19979;-76
2023/07/15 05:44:16;;;;;;;;;;;;;;;-144.99;70.41;52225.94;5023809;28;20330;-76
2023/07/15 05:46:43;;;;;;;;;;;;;;;-144.99;70.42;52207.59;5018668;28;20608;-74
2023/07/15 05:49:09;;;;;;;;;;;;;;;-144.99;70.31;52250.38;5018191;28;20741;-75
2023/07/15 05:51:36;;;;;;;;;;;;;;;-144.99;70.41;52201.47;5020947;28;20512;-73
2023/07/15 05:54:03;;;;;;;;;;;;;;;-144.99;70.28;52223.88;5024370;28;19950;-73
2023/07/15 05:56:29;;;;;;;;;;;;;;;-144.99;70.06;52215.75;5025662;28;20004;-72
2023/07/15 05:58:57;;;;;;;;;;;;;;;-144.99;69.80;52189.25;5022583;28;20436;-73
2023/07/15 06:01:24;;;;;;;;;;;;;;;-144.99;69.98;52223.88;5026819;28;19943;-73
2023/07/15 06:03:50;;;;;;;;;;;;;;;-144.99;69.82;52191.28;5021672;28;19947;-71
2023/07/15 06:06:17;;;;;;;;;;;;;;;-144.99;69.85;52211.66;5025707;28;19955;-74
2023/07/15 06:08:45;;;;;;;;;;;;;;;-144.99;69.37;52179.06;5022521;28;19955;-74
2023/07/15 06:11:12;;;;;;;;;;;;;;;-144.99;69.42;52170.91;5020398;28;19929;-73
2023/07/15 06:13:39;;;;;;;;;;;;;;;-144.99;69.18;52195.34;5023524;28;19933;-75
2023/07/15 06:16:07;;;;;;;;;;;;;;;-144.99;68.98;52170.91;5015668;28;19969;-75
2023/07/15 06:18:33;;;;;;;;;;;;;;;-144.99;68.86;52191.28;5021026;28;19962;-74
2023/07/15 06:21:00;;;;;;;;;;;;;;;-144.99;68.58;52215.75;5017078;28;19944;-74
2023/07/15 06:23:26;;;;;;;;;;;;;;;-144.99;68.63;52185.16;5024088;28;19955;-76
2023/07/15 06:25:53;;;;;;;;;;;;;;;-144.99;68.55;52158.66;5025567;28;19975;-77
2023/07/15 06:28:19;;;;;;;;;;;;;;;-144.99;68.67;52191.28;5023636;28;20057;-76
2023/07/15 06:30:48;;;;;;;;;;;;;;;-144.99;68.04;52191.28;5028872;28;20040;-78
2023/07/15 06:33:16;;;;;;;;;;;;;;;-144.99;68.07;52174.97;5022918;28;19933;-78
2023/07/15 06:35:43;;;;;;;;;;;;;;;-144.99;67.55;52187.19;5018685;28;19960;-77
2023/07/15 06:38:10;;;;;;;;;;;;;;;-144.99;67.95;52162.75;5021525;28;19941;-78
2023/07/15 06:40:36;;;;;;;;;;;;;;;-144.99;67.51;52211.66;5035325;28;19950;-77
2023/07/15 06:43:03;;;;;;;;;;;;;;;-144.99;67.95;52166.81;5026669;28;19937;-76
2023/07/15 06:45:32;;;;;;;;;;;;;;;-144.99;67.58;52158.66;5028378;28;20451;-74
2023/07/15 06:47:59;;;;;;;;;;;;;;;-144.99;66.86;52183.13;5030985;28;19961;-74
2023/07/15 06:50:27;;;;;;;;;;;;;;;-144.99;67.09;52158.66;5024366;28;19953;-73
2023/07/15 06:52:53;;;;;;;;;;;;;;;-144.99;67.00;52170.91;5024728;28;19942;-74
2023/07/15 06:55:20;;;;;;;;;;;;;;;-144.99;67.21;52162.75;5022966;28;19949;-75
2023/07/15 06:57:47;;;;;;;;;;;;;;;-144.99;66.92;52174.97;5025176;28;20542;-73
2023/07/15 07:00:14;;;;;;;;;;;;;;;-144.99;66.90;52138.28;5028561;28;20031;-75
2023/07/15 07:02:41;;;;;;;;;;;;;;;-144.99;66.65;52187.19;5021801;28;19941;-77
2023/07/15 07:05:07;;;;;;;;;;;;;;;-144.99;66.77;52179.06;5022192;28;19940;-73
2023/07/15 07:07:35;;;;;;;;;;;;;;;-144.99;67.14;52162.75;5025509;28;19925;-76
2023/07/15 07:10:02;;;;;;;;;;;;;;;-144.99;66.36;52170.91;5023032;28;19943;-76
2023/07/15 07:12:28;;;;;;;;;;;;;;;-144.99;66.75;52121.97;5024003;28;20193;-74
2023/07/15 07:14:55;;;;;;;;;;;;;;;-144.99;65.87;52134.22;5028522;28;19941;-76
2023/07/15 07:17:21;;;;;;;;;;;;;;;-144.99;66.33;52154.59;5025993;28;19929;-73
2023/07/15 07:19:48;;;;;;;;;;;;;;;-144.99;66.89;52146.44;5022053;28;19941;-74
2023/07/15 07:22:15;;;;;;;;;;;;;;;-144.99;66.60;52187.19;5025146;28;19968;-74
2023/07/15 07:24:42;;;;;;;;;;;;;;;-144.99;66.60;52146.44;5025260;28;19943;-73
2023/07/15 07:27:11;;;;;;;;;;;;;;;-144.99;66.75;52174.97;5020622;28;19965;-74
2023/07/15 07:29:38;;;;;;;;;;;;;;;-144.99;67.25;52160.72;5018255;28;19950;-74
2023/07/15 07:32:05;;;;;;;;;;;;;;;-144.99;66.78;52162.75;5021941;28;19943;-74
2023/07/15 07:34:32;;;;;;;;;;;;;;;-144.99;66.70;52183.13;5018334;28;19949;-74
2023/07/15 07:36:59;;;;;;;;;;;;;;;-144.99;66.22;52130.13;5017003;28;19961;-71
2023/07/15 07:39:25;;;;;;;;;;;;;;;-144.99;66.49;52138.28;5017880;28;19940;-71
2023/07/15 07:41:54;;;;;;;;;;;;;;;-144.99;65.89;52105.69;5018543;28;19937;-77
2023/07/15 07:44:21;;;;;;;;;;;;;;;-144.99;66.41;52146.44;5019406;28;20434;-78
2023/07/15 07:46:48;;;;;;;;;;;;;;;-144.99;66.29;52150.53;5016708;28;19935;-79
2023/07/15 07:49:14;;;;;;;;;;;;;;;-144.99;65.45;52126.06;5024756;28;19929;-78
2023/07/15 07:51:41;;;;;;;;;;;;;;;-144.99;65.12;52146.44;5024450;28;19947;-78
2023/07/15 07:54:08;;;;;;;;;;;;;;;-144.99;64.98;52101.59;5024570;28;19938;-78
2023/07/15 07:56:35;;;;;;;;;;;;;;;-144.99;65.02;52130.13;5035925;28;20326;-77
2023/07/15 07:59:04;;;;;;;;;;;;;;;-144.99;65.63;52134.22;5035033;28;19963;-77
2023/07/15 08:01:31;;;;;;;;;;;;;;;-144.99;65.17;52105.69;5034887;28;20305;-78
2023/07/15 08:03:58;;;;;;;;;;;;;;;-144.99;65.70;52105.69;5039320;28;20007;-78
2023/07/15 08:06:25;;;;;;;;;;;;;;;-144.99;64.83;52154.59;5039299;28;19962;-80
2023/07/15 08:08:52;;;;;;;;;;;;;;;-144.99;64.99;52085.31;5038961;28;20429;-79
2023/07/15 08:11:19;;;;;;;;;;;;;;;-144.99;65.00;52121.97;5035708;28;19936;-81
2023/07/15 08:13:45;;;;;;;;;;;;;;;-144.99;65.09;52121.97;5040013;28;19935;-79
2023/07/15 08:16:27;;;;;;;;;;;;;;;-144.99;64.46;52097.53;5044243;28;19957;-79
2023/07/15 08:18:56;;;;;;;;;;;;;;;-144.99;64.59;52097.53;5032709;28;19936;-80
2023/07/15 08:21:23;;;;;;;;;;;;;;;-144.99;64.66;52073.06;5027266;28;19936;-80
2023/07/15 08:23:49;;;;;;;;;;;;;;;-144.99;64.80;52081.22;5026167;28;20342;-79
2023/07/15 08:26:16;;;;;;;;;;;;;;;-144.99;64.76;52085.31;5028748;28;19929;-78
2023/07/15 08:28:43;;;;;;;;;;;;;;;-144.99;63.58;52119.94;5023828;28;19974;-79
2023/07/15 08:31:09;;;;;;;;;;;;;;;-144.99;64.41;52077.16;5022207;28;19937;-78
2023/07/15 08:33:36;;;;;;;;;;;;;;;-144.99;65.05;52124.03;5030056;28;19940;-79
2023/07/15 08:36:04;;;;;;;;;;;;;;;-144.99;64.56;52105.69;5030493;28;19925;-78
2023/07/15 08:38:31;;;;;;;;;;;;;;;-144.99;63.81;52073.06;5024521;28;20342;-79
2023/07/15 08:40:59;;;;;;;;;;;;;;;-144.99;63.24;52062.88;5028189;28;19961;-79
2023/07/15 08:43:26;;;;;;;;;;;;;;;-144.99;63.24;52056.78;5030419;28;19959;-79
2023/07/15 08:45:55;;;;;;;;;;;;;;;-144.99;62.96;52069.00;5020367;28;19925;-80
2023/07/15 08:48:22;;;;;;;;;;;;;;;-144.99;62.56;52036.38;5022901;28;19932;-79
2023/07/15 08:50:50;;;;;;;;;;;;;;;-144.99;62.35;52060.84;5019917;28;19929;-79
2023/07/15 08:53:22;;;;;;;;;;;;;;;-144.99;62.71;52073.06;5031997;28;19963;-79
2023/07/15 08:55:49;;;;;;;;;;;;;;;-144.99;61.63;52052.69;5030024;28;19959;-79
2023/07/15 08:58:15;;;;;;;;;;;;;;;-144.99;62.05;52089.38;5024883;28;19943;-79
2023/07/15 09:00:42;;;;;;;;;;;;;;;-144.99;61.82;52077.16;5031021;28;20423;-78
2023/07/15 09:03:09;;;;;;;;;;;;;;;-144.99;62.59;52044.53;5027060;28;19935;-79
2023/07/15 09:05:35;;;;;;;;;;;;;;;-144.99;61.50;52030.28;5030615;28;19943;-79
2023/07/15 09:08:09;;;;;;;;;;;;;;;-144.99;62.67;52064.91;5029467;28;19957;-79
2023/07/15 09:10:38;;;;;;;;;;;;;;;-144.99;61.37;52060.84;5031841;28;19925;-78
2023/07/15 09:13:05;;;;;;;;;;;;;;;-144.99;61.54;52036.38;5034858;28;19936;-79
2023/07/15 09:15:31;;;;;;;;;;;;;;;-144.99;61.40;52075.09;5036559;28;19959;-80
2023/07/15 09:17:59;;;;;;;;;;;;;;;-144.99;61.16;52036.38;5036441;28;19925;-78
2023/07/15 09:20:26;;;;;;;;;;;;;;;-144.99;61.39;52093.44;5036273;28;19970;-79
2023/07/15 09:22:54;;;;;;;;;;;;;;;-144.99;61.68;52069.00;5026102;28;19936;-81
2023/07/15 09:25:22;;;;;;;;;;;;;;;-144.99;61.40;52042.50;5034918;28;21642;-78
2023/07/15 09:27:50;;;;;;;;;;;;;;;-144.99;61.47;52048.63;5029457;28;20007;-79
2023/07/15 09:30:17;;;;;;;;;;;;;;;-144.99;61.58;52036.38;5026586;28;19940;-78
2023/07/15 09:32:44;;;;;;;;;;;;;;;-144.99;61.63;52048.63;5029171;28;19929;-79
2023/07/15 09:35:10;;;;;;;;;;;;;;;-144.99;61.56;52042.50;5037712;28;19945;-78
2023/07/15 09:37:37;;;;;;;;;;;;;;;-144.99;61.56;52036.38;5042371;28;20463;-79
2023/07/15 09:40:07;;;;;;;;;;;;;;;-144.99;61.52;52081.22;5036552;28;20042;-79
2023/07/15 09:42:49;;;;;;;;;;;;;;;-144.99;61.13;52028.22;5031969;28;19986;-79
2023/07/15 09:45:31;;;;;;;;;;;;;;;-144.99;61.70;52056.78;5026810;28;19943;-79
2023/07/15 09:47:57;;;;;;;;;;;;;;;-144.99;61.49;52007.84;5029495;28;19990;-80
2023/07/15 09:50:26;;;;;;;;;;;;;;;-144.99;61.54;51999.69;5025000;28;20453;-80
2023/07/15 09:52:55;;;;;;;;;;;;;;;-144.99;61.29;52052.69;5031946;28;19925;-80
2023/07/15 09:55:22;;;;;;;;;;;;;;;-144.99;61.23;52026.19;5030879;28;20336;-79
2023/07/15 09:57:50;;;;;;;;;;;;;;;-144.99;60.80;51971.16;5030081;28;20462;-78
2023/07/15 10:00:18;;;;;;;;;;;;;;;-144.99;60.98;51997.66;5024145;28;19943;-81
2023/07/15 10:02:49;;;;;;;;;;;;;;;-144.99;61.32;52032.31;5028124;28;19943;-81
2023/07/15 10:05:15;;;;;;;;;;;;;;;-144.99;60.96;51989.50;5024072;28;19966;-80
2023/07/15 10:07:42;;;;;;;;;;;;;;;-144.99;60.68;51995.63;5025259;28;20347;-79
2023/07/15 10:10:09;;;;;;;;;;;;;;;-144.99;61.24;52003.78;5030103;28;19925;-80
2023/07/15 10:12:36;;;;;;;;;;;;;;;-144.99;61.22;51993.59;5022296;28;19943;-81
2023/07/15 10:15:03;;;;;;;;;;;;;;;-144.99;61.02;51999.69;5030465;28;19954;-79
2023/07/15 10:17:33;;;;;;;;;;;;;;;-144.99;60.88;52007.84;5033062;28;19961;-79
2023/07/15 10:20:04;;;;;;;;;;;;;;;-144.99;60.50;51987.47;5025776;28;19953;-80
2023/07/15 10:22:34;;;;;;;;;;;;;;;-144.99;61.05;51991.56;5034888;28;20047;-80
2023/07/15 10:25:02;;;;;;;;;;;;;;;-144.99;61.74;51987.47;5027969;28;19933;-79
2023/07/15 10:27:30;;;;;;;;;;;;;;;-144.99;61.36;52022.13;5025785;28;20325;-80
2023/07/15 10:30:11;;;;;;;;;;;;;;;-144.99;61.20;51983.41;5034057;28;19925;-79
2023/07/15 10:32:38;;;;;;;;;;;;;;;-144.99;61.53;51991.56;5032540;28;19944;-79
2023/07/15 10:35:06;;;;;;;;;;;;;;;-144.99;61.35;51977.28;5033698;28;19941;-79
2023/07/15 10:37:34;;;;;;;;;;;;;;;-144.99;60.64;51938.56;5031974;28;19964;-80
2023/07/15 10:40:00;;;;;;;;;;;;;;;-144.99;60.77;51950.78;5026573;28;19998;-80
2023/07/15 10:42:37;;;;;;;;;;;;;;;-144.99;59.74;51936.53;5033177;28;19933;-80
2023/07/15 10:45:04;;;;;;;;;;;;;;;-144.99;59.89;51956.91;5034863;28;20296;-80
2023/07/15 10:47:30;;;;;;;;;;;;;;;-144.99;59.85;51954.88;5035841;28;20406;-78
2023/07/15 10:49:57;;;;;;;;;;;;;;;-144.99;59.50;51936.53;5024883;28;20011;-80
2023/07/15 10:52:30;;;;;;;;;;;;;;;-144.99;59.24;51993.59;5024742;28;19943;-80
2023/07/15 10:54:56;;;;;;;;;;;;;;;-144.99;59.36;51963.03;5033825;28;19959;-81
2023/07/15 10:57:23;;;;;;;;;;;;;;;-144.99;59.65;51983.41;5027749;28;19955;-78
2023/07/15 10:59:49;;;;;;;;;;;;;;;-144.99;59.80;51918.19;5029668;28;20020;-78
2023/07/15 11:02:16;;;;;;;;;;;;;;;-144.99;59.51;51914.09;5029519;28;19929;-80
2023/07/15 11:04:43;;;;;;;;;;;;;;;-144.99;59.53;51914.09;5034228;28;19949;-78
2023/07/15 11:07:10;;;;;;;;;;;;;;;-144.99;58.70;51885.56;5032523;28;19951;-80
2023/07/15 11:09:39;;;;;;;;;;;;;;;-144.99;58.87;51893.72;5028496;28;19959;-80
2023/07/15 11:12:07;;;;;;;;;;;;;;;-144.99;58.90;51873.34;5024866;28;20047;-78
2023/07/15 11:14:33;;;;;;;;;;;;;;;-144.99;58.05;51885.56;5021641;28;19925;-78
2023/07/15 11:17:01;;;;;;;;;;;;;;;-144.99;58.39;51885.56;5021078;28;21020;-77
2023/07/15 11:19:29;;;;;;;;;;;;;;;-144.99;57.77;51881.50;5020482;28;20286;-78
2023/07/15 11:21:56;;;;;;;;;;;;;;;-144.99;57.88;51901.88;5017900;28;19991;-77
2023/07/15 11:24:23;;;;;;;;;;;;;;;-144.99;58.09;51857.03;5018512;28;19963;-78
2023/07/15 11:26:52;;;;;;;;;;;;;;;-144.99;57.83;51889.66;5034858;28;19971;-79
2023/07/15 11:29:19;;;;;;;;;;;;;;;-144.99;57.74;51885.56;5035077;28;20022;-81
2023/07/15 11:31:47;;;;;;;;;;;;;;;-144.99;57.52;51897.81;5018648;28;19943;-79
2023/07/15 11:34:13;;;;;;;;;;;;;;;-144.99;57.42;51889.66;5022649;28;20464;-80
2023/07/15 11:36:40;;;;;;;;;;;;;;;-144.99;56.99;51852.97;5033628;28;20054;-78
2023/07/15 11:39:07;;;;;;;;;;;;;;;-144.99;57.39;51897.81;5029729;28;19949;-77
2023/07/15 11:41:34;;;;;;;;;;;;;;;-144.99;58.07;51901.88;5029995;28;19987;-78
2023/07/15 11:44:02;;;;;;;;;;;;;;;-144.99;57.26;51914.09;5023283;28;19991;-79
2023/07/15 11:46:29;;;;;;;;;;;;;;;-144.99;58.00;51918.19;5029570;28;20016;-79
2023/07/15 11:48:57;;;;;;;;;;;;;;;-144.99;58.33;51963.03;5030016;28;19965;-79
2023/07/15 11:51:24;;;;;;;;;;;;;;;-144.99;57.95;51967.09;5024299;28;19925;-78
2023/07/15 11:53:52;;;;;;;;;;;;;;;-144.99;58.44;51958.94;5026273;28;20430;-79
2023/07/15 11:56:32;;;;;;;;;;;;;;;-144.99;58.50;52032.31;5032247;28;19954;-78
2023/07/15 11:58:58;;;;;;;;;;;;;;;-144.99;59.39;51971.16;5028239;28;19964;-81
2023/07/15 12:01:27;;;;;;;;;;;;;;;-144.99;59.21;52026.19;5024359;28;19926;-79
2023/07/15 12:03:54;;;;;;;;;;;;;;;-144.99;59.11;51995.63;5032281;28;19958;-77
2023/07/15 12:06:21;;;;;;;;;;;;;;;-144.99;59.35;52032.31;5030055;28;19962;-79
2023/07/15 12:08:59;;;;;;;;;;;;;;;-144.99;59.67;51983.41;5021942;28;19947;-78
2023/07/15 12:11:26;;;;;;;;;;;;;;;-144.99;59.53;52003.78;5029058;28;19925;-77
2023/07/15 12:13:52;;;;;;;;;;;;;;;-144.99;59.64;51971.16;5028141;28;19943;-79
2023/07/15 12:16:21;;;;;;;;;;;;;;;-144.99;59.35;51954.88;5024862;28;19926;-77
2023/07/15 12:18:49;;;;;;;;;;;;;;;-144.99;59.59;51975.25;5019471;28;20040;-78
2023/07/15 12:21:16;;;;;;;;;;;;;;;-144.99;60.07;51950.78;5022771;28;19955;-77
2023/07/15 12:23:43;;;;;;;;;;;;;;;-144.99;59.89;51991.56;5025433;28;20038;-77
2023/07/15 12:26:09;;;;;;;;;;;;;;;-144.99;59.88;51987.47;5030231;28;19932;-78
2023/07/15 12:28:36;;;;;;;;;;;;;;;-144.99;59.81;51975.25;5026345;28;20050;-77